createdAt,value
2022-11-29T05:24:53.086Z,101031.16
2022-11-29T05:27:38.561Z,101036.47
2022-11-29T05:30:20.886Z,101040.00
2022-11-29T05:33:08.567Z,101047.97
2022-11-29T05:35:54.005Z,101049.78
2022-11-29T05:38:49.016Z,101054.25
2022-11-29T05:41:46.546Z,101060.41
2022-11-29T05:44:39.624Z,101061.28
2022-11-29T05:47:10.179Z,101056.03
2022-11-29T05:50:09.293Z,101064.84
2022-11-29T05:52:57.563Z,101069.25
2022-11-29T05:55:59.288Z,101070.13
2022-11-29T05:58:52.871Z,101078.91
2022-11-29T06:01:34.563Z,101080.66
2022-11-29T06:04:21.191Z,101087.72
2022-11-29T06:07:16.313Z,101078.91
2022-11-29T06:10:02.025Z,101077.19
2022-11-29T06:12:31.874Z,101078.06
2022-11-29T06:15:36.174Z,101091.25
2022-11-29T06:18:40.757Z,101100.00
2022-11-29T06:21:29.639Z,101092.97
2022-11-29T06:24:25.757Z,101092.97
2022-11-29T06:27:34.446Z,101091.19
2022-11-29T06:30:10.460Z,101093.88
2022-11-29T06:32:50.397Z,101084.16
2022-11-29T06:35:35.380Z,101091.25
2022-11-29T06:38:18.315Z,101099.19
2022-11-29T06:40:45.522Z,101100.94
2022-11-29T06:43:12.767Z,101099.19
2022-11-29T06:45:46.089Z,101109.78
2022-11-29T06:48:22.593Z,101109.78
2022-11-29T06:51:15.381Z,101114.16
2022-11-29T06:53:50.016Z,101108.88
2022-11-29T06:56:26.668Z,101108.88
2022-11-29T06:59:41.403Z,101115.03
2022-11-29T07:02:29.580Z,101116.81
2022-11-29T07:05:05.832Z,101116.81
2022-11-29T07:07:34.986Z,101126.47
2022-11-29T07:10:11.979Z,101125.63
2022-11-29T07:12:41.812Z,101125.63
2022-11-29T07:15:18.548Z,101133.53
2022-11-29T07:17:54.296Z,101137.97
2022-11-29T07:20:35.281Z,101132.66
2022-11-29T07:23:43.528Z,101137.91
2022-11-29T07:26:26.704Z,101137.91
2022-11-29T07:29:29.349Z,101147.59
2022-11-29T07:32:15.613Z,101140.56
2022-11-29T07:35:15.565Z,101149.38
2022-11-29T07:38:06.881Z,101155.53
2022-11-29T07:40:46.959Z,101154.69
2022-11-29T07:43:50.020Z,101158.19
2022-11-29T07:46:16.869Z,101157.28
2022-11-29T07:48:43.672Z,101157.28
2022-11-29T07:51:11.000Z,101161.72
2022-11-29T07:53:43.248Z,101165.25
2022-11-29T07:56:12.159Z,101162.59
2022-11-29T07:58:39.768Z,101170.53
2022-11-29T08:01:06.818Z,101177.59
2022-11-29T08:03:35.364Z,101175.84
2022-11-29T08:06:02.788Z,101179.34
2022-11-29T08:08:29.696Z,101181.13
2022-11-29T08:10:56.496Z,101186.41
2022-11-29T08:13:23.276Z,101191.69
2022-11-29T08:15:50.113Z,101188.16
2022-11-29T08:18:17.698Z,101190.78
2022-11-29T08:20:46.095Z,101193.44
2022-11-29T08:23:14.015Z,101198.78
2022-11-29T08:25:41.326Z,101190.91
2022-11-29T08:28:08.431Z,101203.25
2022-11-29T08:30:35.391Z,101197.97
2022-11-29T08:33:02.240Z,101202.38
2022-11-29T08:35:29.380Z,101200.59
2022-11-29T08:37:56.162Z,101197.06
2022-11-29T08:40:24.287Z,101203.25
2022-11-29T08:42:51.217Z,101202.38
2022-11-29T08:45:18.117Z,101207.66
2022-11-29T08:47:44.928Z,101213.00
2022-11-29T08:50:15.863Z,101211.28
2022-11-29T08:53:08.357Z,101210.41
2022-11-29T08:55:42.856Z,101207.78
2022-11-29T08:58:13.993Z,101209.53
2022-11-29T09:00:43.296Z,101216.59
2022-11-29T09:03:28.759Z,101214.84
2022-11-29T09:05:55.586Z,101225.44
2022-11-29T09:08:22.527Z,101218.41
2022-11-29T09:10:49.534Z,101229.91
2022-11-29T09:13:18.013Z,101226.41
2022-11-29T09:15:44.885Z,101225.56
2022-11-29T09:18:11.656Z,101232.59
2022-11-29T09:20:38.485Z,101230.84
2022-11-29T09:23:05.380Z,101234.38
2022-11-29T09:25:32.253Z,101232.66
2022-11-29T09:28:03.588Z,101233.53
2022-11-29T09:30:31.639Z,101231.88
2022-11-29T09:33:00.718Z,101228.38
2022-11-29T09:35:27.460Z,101233.69
2022-11-29T09:37:54.262Z,101234.56
2022-11-29T09:40:28.046Z,101238.16
2022-11-29T09:43:20.009Z,101242.50
2022-11-29T09:45:53.508Z,101245.16
2022-11-29T09:48:59.578Z,101242.50
2022-11-29T09:51:55.024Z,101248.66
2022-11-29T09:55:01.924Z,101246.81
2022-11-29T09:57:30.765Z,101257.38
2022-11-29T10:00:05.648Z,101260.06
2022-11-29T10:02:45.557Z,101255.69
2022-11-29T10:05:19.556Z,101252.19
2022-11-29T10:07:57.480Z,101249.59
2022-11-29T10:10:40.490Z,101260.25
2022-11-29T10:13:19.174Z,101259.31
2022-11-29T10:15:50.607Z,101262.88
2022-11-29T10:18:38.400Z,101265.56
2022-11-29T10:21:14.044Z,101266.50
2022-11-29T10:23:55.163Z,101263.91
2022-11-29T10:26:23.036Z,101268.34
2022-11-29T10:28:49.895Z,101271.03
2022-11-29T10:31:37.159Z,101265.72
2022-11-29T10:34:18.576Z,101266.63
2022-11-29T10:36:49.714Z,101259.56
2022-11-29T10:39:39.605Z,101263.06
2022-11-29T10:42:34.386Z,101263.94
2022-11-29T10:45:01.925Z,101268.34
2022-11-29T10:47:28.807Z,101269.25
2022-11-29T10:49:56.751Z,101273.63
2022-11-29T10:52:24.164Z,101271.03
2022-11-29T10:54:56.992Z,101266.63
2022-11-29T10:57:24.066Z,101269.25
2022-11-29T11:00:06.877Z,101271.03
2022-11-29T11:02:34.533Z,101277.22
2022-11-29T11:05:02.098Z,101274.63
2022-11-29T11:07:35.615Z,101271.16
2022-11-29T11:10:20.795Z,101273.78
2022-11-29T11:13:06.933Z,101259.72
2022-11-29T11:15:34.386Z,101271.22
2022-11-29T11:18:06.238Z,101272.16
2022-11-29T11:20:37.418Z,101273.94
2022-11-29T11:23:11.642Z,101262.47
2022-11-29T11:25:39.811Z,101266.81
2022-11-29T11:28:38.756Z,101266.84
2022-11-29T11:31:08.809Z,101265.13
2022-11-29T11:33:46.248Z,101269.63
2022-11-29T11:36:27.483Z,101272.34
2022-11-29T11:39:12.876Z,101277.66
2022-11-29T11:42:01.425Z,101287.34
2022-11-29T11:44:48.413Z,101279.41
2022-11-29T11:47:27.870Z,101279.44
2022-11-29T11:50:01.970Z,101281.22
2022-11-29T11:52:52.261Z,101286.56
2022-11-29T11:55:43.318Z,101289.22
2022-11-29T11:58:12.997Z,101286.56
2022-11-29T12:01:07.589Z,101288.34
2022-11-29T12:03:58.944Z,101296.25
2022-11-29T12:06:51.244Z,101290.09
2022-11-29T12:09:41.112Z,101293.66
2022-11-29T12:12:26.027Z,101291.94
2022-11-29T12:15:04.477Z,101290.13
2022-11-29T12:17:56.530Z,101298.94
2022-11-29T12:20:41.360Z,101306.00
2022-11-29T12:23:14.363Z,101295.44
2022-11-29T12:26:03.540Z,101293.69
2022-11-29T12:28:35.195Z,101295.47
2022-11-29T12:31:33.024Z,101304.31
2022-11-29T12:34:43.418Z,101302.59
2022-11-29T12:37:43.740Z,101297.28
2022-11-29T12:40:44.035Z,101300.84
2022-11-29T12:43:53.861Z,101299.09
2022-11-29T12:46:26.302Z,101307.03
2022-11-29T12:49:43.380Z,101311.44
2022-11-29T12:52:35.782Z,101317.63
2022-11-29T12:55:27.011Z,101322.06
2022-11-29T12:58:15.160Z,101319.41
2022-11-29T13:01:31.523Z,101320.34
2022-11-29T13:04:21.220Z,101318.63
2022-11-29T13:07:12.500Z,101326.63
2022-11-29T13:09:54.220Z,101317.81
2022-11-29T13:12:49.212Z,101317.81
2022-11-29T13:15:31.604Z,101328.38
2022-11-29T13:18:50.807Z,101331.00
2022-11-29T13:21:40.583Z,101327.47
2022-11-29T13:24:16.851Z,101331.91
2022-11-29T13:26:44.454Z,101332.75
2022-11-29T13:29:17.446Z,101336.31
2022-11-29T13:31:46.824Z,101323.97
2022-11-29T13:34:22.644Z,101332.81
2022-11-29T13:36:57.796Z,101337.22
2022-11-29T13:39:52.737Z,101326.63
2022-11-29T13:42:24.900Z,101338.06
2022-11-29T13:45:21.686Z,101334.50
2022-11-29T13:48:00.817Z,101337.19
2022-11-29T13:50:45.162Z,101335.44
2022-11-29T13:53:19.411Z,101334.53
2022-11-29T13:55:48.888Z,101343.31
2022-11-29T13:58:17.860Z,101343.28
2022-11-29T14:00:44.867Z,101347.72
2022-11-29T14:03:23.643Z,101359.19
2022-11-29T14:05:54.772Z,101366.22
2022-11-29T14:09:10.242Z,101354.75
2022-11-29T14:11:34.825Z,101354.75
2022-11-29T14:14:05.097Z,101360.94
2022-11-29T14:16:43.902Z,101369.72
2022-11-29T14:19:10.564Z,101364.44
2022-11-29T14:21:59.139Z,101367.06
2022-11-29T14:24:37.939Z,101372.34
2022-11-29T14:27:07.738Z,101372.34
2022-11-29T14:29:53.685Z,101370.59
2022-11-29T14:32:46.322Z,101371.47
2022-11-29T14:35:21.976Z,101373.22
2022-11-29T14:38:14.479Z,101373.13
2022-11-29T14:40:41.824Z,101371.38
2022-11-29T14:43:36.878Z,101368.72
2022-11-29T14:46:15.571Z,101375.72
2022-11-29T14:48:54.929Z,101381.88
2022-11-29T14:51:23.965Z,101375.66
2022-11-29T14:54:14.642Z,101378.31
2022-11-29T14:56:44.929Z,101380.09
2022-11-29T14:59:41.397Z,101388.88
2022-11-29T15:02:29.381Z,101386.22
2022-11-29T15:04:58.209Z,101394.09
2022-11-29T15:07:31.924Z,101387.06
2022-11-29T15:10:04.400Z,101395.00
2022-11-29T15:12:36.571Z,101390.59
2022-11-29T15:15:33.652Z,101388.81
2022-11-29T15:18:06.676Z,101390.50
2022-11-29T15:20:57.972Z,101390.50
2022-11-29T15:23:24.922Z,101400.13
2022-11-29T15:26:00.188Z,101401.03
2022-11-29T15:28:29.374Z,101398.34
2022-11-29T15:31:06.150Z,101401.03
2022-11-29T15:33:40.277Z,101403.72
2022-11-29T15:36:19.307Z,101404.56
2022-11-29T15:38:54.124Z,101399.28
2022-11-29T15:41:30.791Z,101401.03
2022-11-29T15:44:05.547Z,101406.31
2022-11-29T15:46:35.171Z,101416.91
2022-11-29T15:49:25.662Z,101411.56
2022-11-29T15:52:00.303Z,101416.91
2022-11-29T15:54:38.156Z,101413.38
2022-11-29T15:57:20.838Z,101412.47
2022-11-29T15:59:59.557Z,101414.25
2022-11-29T16:02:36.984Z,101420.41
2022-11-29T16:05:22.157Z,101417.72
2022-11-29T16:07:54.175Z,101418.56
2022-11-29T16:10:34.948Z,101418.53
2022-11-29T16:13:25.606Z,101415.84
2022-11-29T16:16:09.712Z,101422.03
2022-11-29T16:18:40.836Z,101416.69
2022-11-29T16:21:23.165Z,101423.75
2022-11-29T16:23:50.090Z,101417.53
2022-11-29T16:26:27.189Z,101425.47
2022-11-29T16:28:57.722Z,101420.13
2022-11-29T16:31:38.352Z,101433.34
2022-11-29T16:34:18.743Z,101436.00
2022-11-29T16:36:45.756Z,101441.28
2022-11-29T16:39:23.154Z,101440.47
2022-11-29T16:42:30.168Z,101444.81
2022-11-29T16:45:37.012Z,101446.56
2022-11-29T16:48:25.369Z,101446.53
2022-11-29T16:51:10.452Z,101450.97
2022-11-29T16:53:41.375Z,101454.50
2022-11-29T16:56:14.789Z,101450.97
2022-11-29T16:59:20.780Z,101446.59
2022-11-29T17:01:31.490Z,101453.66
2022-11-29T17:03:59.930Z,101448.34
2022-11-29T17:06:28.654Z,101452.72
2022-11-29T17:08:57.879Z,101456.25
2022-11-29T17:11:25.569Z,101458.91
2022-11-29T17:13:52.665Z,101456.25
2022-11-29T17:16:23.005Z,101463.28
2022-11-29T17:18:52.797Z,101457.09
2022-11-29T17:21:37.263Z,101467.69
2022-11-29T17:26:50.236Z,101478.09
2022-11-29T17:29:29.765Z,101482.53
2022-11-29T17:32:09.807Z,101478.13
2022-11-29T17:34:39.134Z,101486.06
2022-11-29T17:37:06.531Z,101493.09
2022-11-29T17:42:18.406Z,101491.25
2022-11-29T17:44:45.552Z,101500.03
2022-11-29T17:47:41.253Z,101496.56
2022-11-29T17:50:21.458Z,101499.19
2022-11-29T17:53:03.099Z,101494.81
2022-11-29T17:55:30.569Z,101498.38
2022-11-29T17:58:19.613Z,101502.78
2022-11-29T18:00:49.905Z,101507.19
2022-11-29T18:03:26.135Z,101503.66
2022-11-29T18:06:17.433Z,101500.16
2022-11-29T18:09:06.104Z,101505.41
2022-11-29T18:11:49.622Z,101495.75
2022-11-29T18:14:32.900Z,101499.22
2022-11-29T18:17:00.261Z,101500.94
2022-11-29T18:19:33.356Z,101506.31
2022-11-29T18:22:23.475Z,101511.59
2022-11-29T18:25:16.124Z,101503.63
2022-11-29T18:28:00.871Z,101508.00
2022-11-29T18:30:33.738Z,101511.50
2022-11-29T18:33:03.977Z,101515.03
2022-11-29T18:35:35.127Z,101509.75
2022-11-29T18:38:17.111Z,101521.19
2022-11-29T18:41:00.420Z,101512.41
2022-11-29T18:43:32.367Z,101515.03
2022-11-29T18:46:15.861Z,101516.81
2022-11-29T18:48:48.429Z,101515.03
2022-11-29T18:51:30.027Z,101519.44
2022-11-29T18:54:00.682Z,101526.47
2022-11-29T18:56:31.053Z,101515.81
2022-11-29T18:59:54.825Z,101514.03
2022-11-29T19:02:25.813Z,101530.72
2022-11-29T19:05:13.384Z,101519.22
2022-11-29T19:07:53.687Z,101525.34
2022-11-29T19:10:25.493Z,101525.34
2022-11-29T19:12:52.687Z,101525.34
2022-11-29T19:15:21.771Z,101520.13
2022-11-29T19:17:48.684Z,101528.94
2022-11-29T19:20:15.807Z,101528.94
2022-11-29T19:22:42.777Z,101530.72
2022-11-29T19:25:16.153Z,101529.84
2022-11-29T19:27:45.349Z,101533.31
2022-11-29T19:30:15.494Z,101527.16
2022-11-29T19:32:45.625Z,101528.03
2022-11-29T19:35:15.917Z,101536.00
2022-11-29T19:38:22.560Z,101520.16
2022-11-29T19:40:55.227Z,101523.66
2022-11-29T19:43:25.027Z,101519.19
2022-11-29T19:45:55.037Z,101521.88
2022-11-29T19:48:30.050Z,101517.44
2022-11-29T19:51:00.589Z,101516.53
2022-11-29T19:53:35.232Z,101521.72
2022-11-29T19:56:08.122Z,101521.69
2022-11-29T19:58:35.101Z,101525.19
2022-11-29T20:01:13.382Z,101530.47
2022-11-29T20:03:41.238Z,101537.50
2022-11-29T20:06:16.262Z,101533.91
2022-11-29T20:08:46.816Z,101538.31
2022-11-29T20:11:17.923Z,101540.97
2022-11-29T20:13:47.509Z,101537.44
2022-11-29T20:16:18.354Z,101538.31
2022-11-29T20:18:51.107Z,101545.38
2022-11-29T20:21:28.480Z,101545.38
2022-11-29T20:24:07.909Z,101549.75
2022-11-29T20:26:39.903Z,101555.03
2022-11-29T20:29:08.678Z,101554.19
2022-11-29T20:31:38.492Z,101553.34
2022-11-29T20:34:06.573Z,101555.97
2022-11-29T20:37:22.256Z,101556.00
2022-11-29T20:40:00.108Z,101553.13
2022-11-29T20:43:07.244Z,101554.91
2022-11-29T20:45:34.439Z,101568.97
2022-11-29T20:48:15.332Z,101556.66
2022-11-29T20:50:47.166Z,101559.31
2022-11-29T20:53:43.174Z,101551.50
2022-11-29T20:56:11.919Z,101553.16
2022-11-29T20:58:39.191Z,101553.13
2022-11-29T21:01:07.586Z,101560.19
2022-11-29T21:03:35.222Z,101558.41
2022-11-29T21:06:05.003Z,101561.00
2022-11-29T21:08:32.861Z,101557.50
2022-11-29T21:11:09.998Z,101561.03
2022-11-29T21:13:39.391Z,101561.03
2022-11-29T21:16:08.858Z,101561.91
2022-11-29T21:18:39.691Z,101561.03
2022-11-29T21:21:36.643Z,101563.69
2022-11-29T21:25:08.864Z,101559.22
2022-11-29T21:27:52.913Z,101561.91
2022-11-29T21:30:33.424Z,101562.75
2022-11-29T21:33:24.480Z,101559.19
2022-11-29T21:36:11.919Z,101558.31
2022-11-29T21:38:54.900Z,101560.91
2022-11-29T21:41:28.011Z,101563.53
2022-11-29T21:44:06.602Z,101559.13
2022-11-29T21:46:38.451Z,101554.72
2022-11-29T21:49:10.899Z,101565.28
2022-11-29T21:51:38.048Z,101564.34
2022-11-29T21:54:06.523Z,101566.97
2022-11-29T21:56:41.297Z,101564.38
2022-11-29T21:59:26.532Z,101572.31
2022-11-29T22:01:54.385Z,101577.59
2022-11-29T22:04:30.243Z,101574.94
2022-11-29T22:07:04.307Z,101572.28
2022-11-29T22:09:41.473Z,101577.59
2022-11-29T22:12:32.041Z,101577.59
2022-11-29T22:14:58.505Z,101575.00
2022-11-29T22:17:41.956Z,101579.38
2022-11-29T22:20:09.648Z,101581.19
2022-11-29T22:23:38.200Z,101580.34
2022-11-29T22:32:48.543Z,101584.69
2022-11-29T22:35:23.352Z,101586.41
2022-11-29T22:37:50.699Z,101581.13
2022-11-29T22:40:20.986Z,101586.41
2022-11-29T22:43:02.957Z,101589.16
2022-11-29T22:46:12.261Z,101589.97
2022-11-29T22:49:03.253Z,101593.44
2022-11-29T22:52:02.555Z,101591.69
2022-11-29T22:54:34.570Z,101594.34
2022-11-29T22:57:01.712Z,101596.97
2022-11-29T23:00:14.961Z,101592.53
2022-11-29T23:02:44.288Z,101594.34
2022-11-29T23:05:20.593Z,101594.34
2022-11-29T23:07:49.690Z,101597.81
2022-11-29T23:14:03.510Z,101601.38
2022-11-29T23:17:06.392Z,101598.69
2022-11-29T23:22:55.568Z,101596.84
2022-11-29T23:25:22.551Z,101599.47
2022-11-29T23:27:50.783Z,101605.69
2022-11-29T23:30:17.997Z,101607.41
2022-11-29T23:32:45.103Z,101599.47
2022-11-29T23:35:12.586Z,101602.13
2022-11-29T23:37:40.002Z,101595.97
2022-11-29T23:40:14.731Z,101602.16
2022-11-29T23:43:43.718Z,101596.88
2022-11-29T23:46:32.325Z,101588.94
2022-11-29T23:48:59.350Z,101600.41
2022-11-29T23:51:26.397Z,101595.13
2022-11-29T23:54:00.380Z,101589.84
2022-11-29T23:56:36.060Z,101582.78
2022-11-29T23:59:03.704Z,101581.84
